Time;durP1;ratioP1;P1;durP2;ratioP2;P2;SDS_P1;SDS_P2;PMS_P1;PMS_P2;Temp;Humidity;BMP_temperature;BMP_pressure;BME280_temperature;BME280_humidity;BME280_pressure;Samples;Min_cycle;Max_cycle;Signal;HPM_P1;HPM_P2
2021/12/21 00:01:09;;;;;;;13.18;5.63;;;-3.30;99.90;;;;;;5049478;28;20696;-73
2021/12/21 00:03:36;;;;;;;7.60;5.28;;;-3.40;99.90;;;;;;5048719;28;20232;-72
2021/12/21 00:06:03;;;;;;;8.45;5.38;;;-3.40;99.90;;;;;;5049311;28;20232;-73
2021/12/21 00:08:32;;;;;;;8.50;5.40;;;-3.40;99.90;;;;;;5049214;28;20246;-73
2021/12/21 00:11:00;;;;;;;16.60;6.53;;;-3.50;99.90;;;;;;5048588;28;20202;-73
2021/12/21 00:13:41;;;;;;;11.35;6.45;;;-3.50;99.90;;;;;;5048800;28;20228;-73
2021/12/21 00:16:17;;;;;;;11.73;5.88;;;-3.50;99.90;;;;;;5049364;28;20687;-73
2021/12/21 00:18:53;;;;;;;13.10;6.18;;;-3.50;99.90;;;;;;5047459;28;20300;-73
2021/12/21 00:21:31;;;;;;;10.13;5.88;;;-3.50;99.90;;;;;;5114946;22;20232;-73
2021/12/21 00:24:02;;;;;;;7.70;5.15;;;-3.50;99.90;;;;;;5068488;28;20228;-73
2021/12/21 00:26:29;;;;;;;8.90;5.78;;;-3.50;99.90;;;;;;5069417;28;20599;-73
2021/12/21 00:29:00;;;;;;;7.93;5.30;;;-3.50;99.90;;;;;;5068173;28;20220;-73
2021/12/21 00:31:28;;;;;;;8.80;5.30;;;-3.50;99.90;;;;;;5068850;28;20223;-72
2021/12/21 00:33:56;;;;;;;6.95;5.10;;;-3.50;99.90;;;;;;5067869;28;20224;-72
2021/12/21 00:36:24;;;;;;;11.25;6.22;;;-3.60;99.90;;;;;;5069497;28;20223;-72
2021/12/21 00:38:52;;;;;;;8.68;5.47;;;-3.60;99.90;;;;;;5068518;28;20199;-73
2021/12/21 00:41:21;;;;;;;9.38;6.05;;;-3.60;99.90;;;;;;5067855;28;20200;-72
2021/12/21 00:43:48;;;;;;;9.38;5.55;;;-3.60;99.90;;;;;;5068767;28;20224;-72
2021/12/21 00:46:16;;;;;;;9.65;5.80;;;-3.60;99.90;;;;;;5068573;28;20204;-73
2021/12/21 00:48:49;;;;;;;12.10;5.95;;;-3.70;99.90;;;;;;5067858;28;20606;-72
2021/12/21 00:51:18;;;;;;;8.35;5.50;;;-3.70;99.90;;;;;;5068588;28;20201;-72
2021/12/21 00:53:45;;;;;;;8.60;6.18;;;-3.70;99.90;;;;;;5056039;28;20229;-73
2021/12/21 00:56:12;;;;;;;9.23;6.18;;;-3.70;99.90;;;;;;5050212;28;20212;-72
2021/12/21 00:58:40;;;;;;;9.05;5.70;;;-3.70;99.90;;;;;;5052649;28;20241;-73
2021/12/21 01:01:08;;;;;;;14.00;7.45;;;-3.70;99.90;;;;;;5052531;28;20204;-73
2021/12/21 01:03:37;;;;;;;9.77;6.13;;;-3.70;99.90;;;;;;5052184;28;20312;-73
2021/12/21 01:06:11;;;;;;;15.85;5.63;;;-3.70;99.90;;;;;;5052894;28;20221;-72
2021/12/21 01:08:55;;;;;;;12.80;6.57;;;-3.80;99.90;;;;;;5052657;28;20270;-73
2021/12/21 01:11:27;;;;;;;10.13;6.85;;;-3.80;99.90;;;;;;5052019;28;20204;-72
2021/12/21 01:14:06;;;;;;;9.52;5.43;;;-3.80;99.90;;;;;;5052094;28;20217;-72
2021/12/21 01:16:39;;;;;;;12.98;5.97;;;-3.80;99.90;;;;;;5052631;28;20205;-72
2021/12/21 01:19:12;;;;;;;12.18;6.05;;;-3.80;99.90;;;;;;5052408;28;20399;-72
2021/12/21 01:21:47;;;;;;;10.68;5.38;;;-3.80;99.90;;;;;;5051885;28;20774;-72
2021/12/21 01:24:48;;;;;;;16.00;6.40;;;-3.80;99.90;;;;;;5052093;28;20224;-73
2021/12/21 01:27:25;;;;;;;11.90;5.45;;;-3.80;99.90;;;;;;5052747;28;20218;-72
2021/12/21 01:30:04;;;;;;;8.25;5.47;;;-3.90;99.90;;;;;;5052087;28;20319;-72
2021/12/21 01:32:47;;;;;;;11.43;5.72;;;-3.90;99.90;;;;;;5051451;28;20717;-73
2021/12/21 01:35:20;;;;;;;10.40;5.70;;;-3.90;99.90;;;;;;5070956;28;20216;-72
2021/12/21 01:37:55;;;;;;;9.48;5.35;;;-3.90;99.90;;;;;;5071568;28;20601;-72
2021/12/21 01:40:37;;;;;;;9.38;5.00;;;-3.90;99.90;;;;;;5139386;22;20315;-78
2021/12/21 01:43:15;;;;;;;9.48;5.43;;;-3.90;99.90;;;;;;5076362;28;20722;-78
2021/12/21 01:51:14;;;;;;;10.18;5.40;;;-3.90;99.90;;;;;;5083252;28;20433;-77
2021/12/21 01:53:43;;;;;;;7.55;5.55;;;-3.90;99.90;;;;;;5087515;28;20223;-79
2021/12/21 01:56:10;;;;;;;7.85;5.80;;;-3.90;99.90;;;;;;5077119;28;20200;-77
2021/12/21 01:58:39;;;;;;;9.73;5.15;;;-4.00;99.90;;;;;;5077845;28;20208;-78
2021/12/21 02:01:09;;;;;;;7.97;5.05;;;-4.00;99.90;;;;;;5078048;28;20207;-78
2021/12/21 02:03:36;;;;;;;7.65;5.30;;;-4.00;99.90;;;;;;5078366;28;20231;-79
2021/12/21 02:06:03;;;;;;;9.05;5.25;;;-4.10;99.90;;;;;;5078553;28;20664;-78
2021/12/21 02:08:30;;;;;;;11.32;5.30;;;-4.10;99.90;;;;;;5077392;28;20220;-78
2021/12/21 02:11:03;;;;;;;7.80;5.18;;;-4.00;99.90;;;;;;5077024;28;20671;-78
2021/12/21 02:13:33;;;;;;;7.88;4.78;;;-4.00;99.90;;;;;;5078367;28;20224;-79
2021/12/21 02:16:00;;;;;;;10.50;4.50;;;-4.10;99.90;;;;;;5077604;28;20655;-78
2021/12/21 02:18:44;;;;;;;8.50;5.45;;;-4.10;99.90;;;;;;5077914;28;20197;-78
2021/12/21 02:21:19;;;;;;;8.68;4.93;;;-4.00;99.90;;;;;;5076281;28;20204;-78
2021/12/21 02:23:47;;;;;;;7.50;4.50;;;-4.00;99.90;;;;;;5075137;28;20220;-78
2021/12/21 02:31:52;;;;;;;7.13;5.03;;;-3.90;99.90;;;;;;5051229;28;20567;-78
2021/12/21 02:34:20;;;;;;;6.40;4.43;;;-4.00;99.90;;;;;;5076320;28;20227;-79
2021/12/21 02:36:51;;;;;;;5.38;4.78;;;-4.00;99.90;;;;;;5076344;28;20200;-79
2021/12/21 02:39:19;;;;;;;7.60;4.85;;;-4.00;99.90;;;;;;5076395;28;20200;-79
2021/12/21 02:41:46;;;;;;;7.70;4.90;;;-3.90;99.90;;;;;;5075993;28;20212;-79
2021/12/21 02:44:15;;;;;;;10.18;5.03;;;-3.90;99.90;;;;;;5076119;28;20231;-78
2021/12/21 02:46:42;;;;;;;7.13;4.10;;;-4.00;99.90;;;;;;5076390;28;20204;-78
2021/12/21 02:49:10;;;;;;;9.88;4.65;;;-4.00;99.90;;;;;;5075846;28;20224;-76
2021/12/21 02:51:39;;;;;;;10.13;4.68;;;-4.00;99.90;;;;;;5075368;28;20227;-77
2021/12/21 02:54:07;;;;;;;5.22;4.05;;;-4.00;99.90;;;;;;5076372;28;20217;-78
2021/12/21 02:56:34;;;;;;;7.22;4.68;;;-4.00;99.90;;;;;;5075614;28;20208;-78
2021/12/21 02:59:01;;;;;;;7.88;4.32;;;-4.10;99.90;;;;;;5075455;28;20212;-79
2021/12/21 03:01:29;;;;;;;10.25;4.75;;;-4.10;99.90;;;;;;5075825;28;20212;-78
2021/12/21 03:03:56;;;;;;;7.88;3.75;;;-4.10;99.90;;;;;;5077244;28;20243;-78
2021/12/21 03:06:59;;;;;;;8.48;4.30;;;-4.20;99.90;;;;;;5076765;28;20686;-78
2021/12/21 03:09:39;;;;;;;8.10;4.10;;;-4.20;99.90;;;;;;5082289;28;21026;-79
2021/12/21 03:12:12;;;;;;;6.55;4.80;;;-4.10;99.90;;;;;;5075759;28;20201;-78
2021/12/21 03:14:40;;;;;;;5.47;4.18;;;-4.20;99.90;;;;;;5076090;28;20227;-79
2021/12/21 03:17:08;;;;;;;10.05;5.20;;;-4.20;99.90;;;;;;5075742;28;20200;-77
2021/12/21 03:19:35;;;;;;;10.43;4.90;;;-4.10;99.90;;;;;;5072199;28;20679;-79
2021/12/21 03:22:02;;;;;;;6.70;4.55;;;-4.20;99.90;;;;;;5074895;28;20291;-79
2021/12/21 03:24:30;;;;;;;6.90;4.90;;;-4.20;99.90;;;;;;5072014;28;20220;-78
2021/12/21 03:26:57;;;;;;;9.63;4.40;;;-4.20;99.90;;;;;;5073342;28;20200;-77
2021/12/21 03:29:26;;;;;;;5.80;4.63;;;-4.30;99.90;;;;;;5074202;28;20254;-76
2021/12/21 03:31:52;;;;;;;5.97;4.30;;;-4.20;99.90;;;;;;5074094;28;20216;-78
2021/12/21 03:34:19;;;;;;;10.02;3.90;;;-4.30;99.90;;;;;;5075348;28;20216;-78
2021/12/21 03:36:46;;;;;;;13.18;5.45;;;-4.30;99.90;;;;;;5076060;28;20215;-78
2021/12/21 03:39:18;;;;;;;10.52;4.97;;;-4.30;99.90;;;;;;5075874;28;20235;-78
2021/12/21 03:41:51;;;;;;;9.55;4.85;;;-4.30;99.90;;;;;;5075627;28;20242;-78
2021/12/21 03:44:19;;;;;;;5.95;4.53;;;-4.40;99.90;;;;;;5091716;28;20277;-77
2021/12/21 03:46:49;;;;;;;7.88;4.72;;;-4.40;99.90;;;;;;5092760;28;20188;-78
2021/12/21 03:49:51;;;;;;;6.90;4.72;;;-4.40;99.90;;;;;;5092810;28;20226;-76
2021/12/21 03:52:25;;;;;;;5.65;4.57;;;-4.40;99.90;;;;;;5091773;28;20188;-77
2021/12/21 03:54:54;;;;;;;5.68;4.40;;;-4.50;99.90;;;;;;5094453;28;20350;-77
2021/12/21 03:57:22;;;;;;;14.45;5.00;;;-4.50;99.90;;;;;;5077548;28;20211;-79
2021/12/21 03:59:50;;;;;;;7.38;3.88;;;-4.50;99.90;;;;;;5074144;28;20199;-77
2021/12/21 04:02:19;;;;;;;8.15;4.53;;;-4.50;99.90;;;;;;5073529;28;20207;-78
2021/12/21 04:04:46;;;;;;;7.95;4.43;;;-4.50;99.90;;;;;;5074024;28;20705;-78
2021/12/21 04:07:13;;;;;;;11.02;5.00;;;-4.50;99.90;;;;;;5073675;28;20201;-78
2021/12/21 04:09:40;;;;;;;6.38;4.32;;;-4.50;99.90;;;;;;5074192;28;20235;-79
2021/12/21 04:12:07;;;;;;;8.40;4.25;;;-4.50;99.90;;;;;;5073900;28;20203;-77
2021/12/21 04:14:36;;;;;;;6.15;4.25;;;-4.50;99.90;;;;;;5073473;28;20252;-78
2021/12/21 04:17:04;;;;;;;12.63;4.25;;;-4.50;99.90;;;;;;5073859;28;20200;-78
2021/12/21 04:19:30;;;;;;;6.78;4.57;;;-4.50;99.90;;;;;;5074198;28;20216;-79
2021/12/21 04:21:57;;;;;;;8.90;4.10;;;-4.50;99.90;;;;;;5073595;28;20201;-78
2021/12/21 04:24:24;;;;;;;7.95;4.68;;;-4.60;99.90;;;;;;5073654;28;20246;-79
2021/12/21 04:26:51;;;;;;;8.95;4.30;;;-4.60;99.90;;;;;;5072729;28;20196;-78
2021/12/21 04:29:18;;;;;;;5.60;3.88;;;-4.60;99.90;;;;;;5072298;28;20247;-77
2021/12/21 04:31:48;;;;;;;6.78;4.70;;;-4.60;99.90;;;;;;5075715;28;20207;-77
2021/12/21 04:34:15;;;;;;;8.27;4.32;;;-4.60;99.90;;;;;;5075312;28;20220;-77
2021/12/21 04:36:42;;;;;;;9.93;4.47;;;-4.70;99.90;;;;;;5074267;28;20200;-76
2021/12/21 04:39:19;;;;;;;8.15;5.20;;;-4.70;99.90;;;;;;5074224;28;20228;-76
2021/12/21 04:41:46;;;;;;;6.72;4.32;;;-4.70;99.90;;;;;;5073962;28;20207;-77
2021/12/21 04:44:13;;;;;;;9.20;4.53;;;-4.70;99.90;;;;;;5073648;28;20224;-74
2021/12/21 04:46:39;;;;;;;7.60;4.25;;;-4.70;99.90;;;;;;5073832;28;20675;-75
2021/12/21 04:49:07;;;;;;;9.07;5.10;;;-4.70;99.90;;;;;;5073813;28;20687;-76
2021/12/21 04:51:34;;;;;;;7.55;4.38;;;-4.70;99.90;;;;;;5073481;28;20204;-76
2021/12/21 04:54:01;;;;;;;6.65;4.32;;;-4.70;99.90;;;;;;5069945;28;20506;-76
2021/12/21 04:56:28;;;;;;;5.88;4.00;;;-4.80;99.90;;;;;;5070536;28;20744;-76
2021/12/21 04:58:54;;;;;;;6.47;4.45;;;-4.70;99.90;;;;;;5063910;28;20197;-77
2021/12/21 05:01:21;;;;;;;7.10;4.35;;;-4.70;99.90;;;;;;5068544;28;20201;-77
2021/12/21 05:03:48;;;;;;;9.25;4.88;;;-4.80;99.90;;;;;;5073834;28;20247;-76
2021/12/21 05:06:19;;;;;;;4.70;3.80;;;-4.70;99.90;;;;;;5086397;28;20207;-77
2021/12/21 05:08:52;;;;;;;6.30;4.55;;;-4.70;99.90;;;;;;5080018;28;20303;-76
2021/12/21 05:11:20;;;;;;;6.18;4.30;;;-4.70;99.90;;;;;;5070792;28;20197;-76
2021/12/21 05:13:47;;;;;;;5.70;4.80;;;-4.80;99.90;;;;;;5074541;28;20232;-79
2021/12/21 05:16:14;;;;;;;6.00;4.32;;;-4.80;99.90;;;;;;5072616;28;20211;-79
2021/12/21 05:18:41;;;;;;;8.85;5.00;;;-4.80;99.90;;;;;;5073803;28;20209;-76
2021/12/21 05:21:07;;;;;;;7.60;4.38;;;-4.80;99.90;;;;;;5072420;28;20200;-78
2021/12/21 05:23:35;;;;;;;6.82;4.30;;;-4.80;99.90;;;;;;5073851;28;20695;-77
2021/12/21 05:26:02;;;;;;;8.82;5.20;;;-4.80;99.90;;;;;;5073959;28;20208;-78
2021/12/21 05:28:29;;;;;;;7.55;4.38;;;-4.80;99.90;;;;;;5073413;28;20200;-75
2021/12/21 05:30:56;;;;;;;7.03;4.50;;;-4.80;99.90;;;;;;5072374;28;20686;-75
2021/12/21 05:33:22;;;;;;;8.75;5.78;;;-4.80;99.90;;;;;;5072660;28;20220;-75
2021/12/21 05:35:50;;;;;;;10.55;5.05;;;-4.80;99.90;;;;;;5072949;28;20207;-74
2021/12/21 05:38:24;;;;;;;10.45;5.90;;;-4.80;99.90;;;;;;5072515;28;20675;-75
2021/12/21 05:40:54;;;;;;;8.20;4.45;;;-4.80;99.90;;;;;;5072258;28;20204;-75
2021/12/21 05:43:21;;;;;;;5.78;4.35;;;-4.80;99.90;;;;;;5071779;28;20311;-75
2021/12/21 05:45:48;;;;;;;10.30;5.10;;;-4.70;99.90;;;;;;5072899;28;20200;-75
2021/12/21 05:48:14;;;;;;;5.25;4.35;;;-4.70;99.90;;;;;;5070380;28;20189;-75
2021/12/21 05:50:41;;;;;;;6.00;4.88;;;-4.70;99.90;;;;;;5072495;28;20220;-75
2021/12/21 05:53:08;;;;;;;7.60;4.95;;;-4.70;99.90;;;;;;5070802;28;20221;-75
2021/12/21 05:55:35;;;;;;;7.13;4.60;;;-4.70;99.90;;;;;;5071982;28;20212;-75
2021/12/21 05:58:03;;;;;;;7.10;4.25;;;-4.70;99.90;;;;;;5071479;28;20208;-75
2021/12/21 06:00:32;;;;;;;8.57;4.60;;;-4.80;99.90;;;;;;5071838;28;20205;-74
2021/12/21 06:02:59;;;;;;;6.95;4.22;;;-4.80;99.90;;;;;;5071611;28;20220;-75
2021/12/21 06:05:25;;;;;;;6.97;4.53;;;-4.80;99.90;;;;;;5071632;28;20200;-75
2021/12/21 06:07:54;;;;;;;8.35;4.60;;;-4.80;99.90;;;;;;5072355;28;20200;-74
2021/12/21 06:10:26;;;;;;;5.00;4.28;;;-4.80;99.90;;;;;;5071295;28;20221;-75
2021/12/21 06:13:16;;;;;;;6.50;4.68;;;-4.80;99.90;;;;;;5071674;28;20663;-75
2021/12/21 06:15:55;;;;;;;8.27;4.32;;;-4.90;99.90;;;;;;5072059;28;20204;-75
2021/12/21 06:24:51;;;;;;;8.68;4.75;;;-4.90;99.90;;;;;;5071819;28;20285;-74
2021/12/21 06:26:52;;;;;;;6.47;3.70;;;-4.90;99.90;;;;;;5071866;28;20273;-75
2021/12/21 06:29:19;;;;;;;6.70;4.35;;;-4.90;99.90;;;;;;5070964;28;20217;-74
2021/12/21 06:31:48;;;;;;;7.90;4.30;;;-5.00;99.90;;;;;;5071112;28;20212;-74
2021/12/21 06:34:15;;;;;;;7.35;4.00;;;-4.90;99.90;;;;;;5070967;28;20220;-74
2021/12/21 06:36:42;;;;;;;8.80;4.05;;;-4.90;99.90;;;;;;5071616;28;20208;-75
2021/12/21 06:39:10;;;;;;;8.25;4.38;;;-4.90;99.90;;;;;;5071269;28;20203;-75
2021/12/21 06:41:37;;;;;;;8.00;4.28;;;-4.90;99.90;;;;;;5070571;28;20691;-75
2021/12/21 06:44:05;;;;;;;6.15;4.80;;;-4.90;99.90;;;;;;5069227;28;20256;-74
2021/12/21 06:46:49;;;;;;;13.77;7.32;;;-4.90;99.90;;;;;;5070784;28;20208;-74
2021/12/21 06:52:03;;;;;;;13.75;8.35;;;-5.00;99.90;;;;;;5070051;28;20579;-75
2021/12/21 06:54:30;;;;;;;11.93;7.18;;;-5.00;99.90;;;;;;5070721;28;20221;-74
2021/12/21 06:56:57;;;;;;;9.60;5.60;;;-5.00;99.90;;;;;;5070958;28;20200;-74
2021/12/21 06:59:24;;;;;;;6.90;4.82;;;-5.00;99.90;;;;;;5071036;28;20663;-74
2021/12/21 07:01:51;;;;;;;13.15;5.40;;;-5.00;99.90;;;;;;5068165;28;20203;-74
2021/12/21 07:04:20;;;;;;;8.70;5.40;;;-5.10;99.90;;;;;;5070560;28;20235;-74
2021/12/21 07:06:47;;;;;;;7.68;4.68;;;-5.10;99.90;;;;;;5070985;28;20212;-74
2021/12/21 07:09:20;;;;;;;10.10;4.80;;;-5.10;99.90;;;;;;5070805;28;20611;-74
2021/12/21 07:11:56;;;;;;;6.53;5.35;;;-5.10;99.90;;;;;;5070727;28;20204;-74
2021/12/21 07:20:16;;;;;;;5.93;4.85;;;-5.00;99.90;;;;;;5010592;28;20747;-74
2021/12/21 07:22:43;;;;;;;6.22;5.00;;;-5.00;99.90;;;;;;5058802;28;20220;-74
2021/12/21 07:25:10;;;;;;;7.95;5.28;;;-5.00;99.90;;;;;;5070499;28;20207;-74
2021/12/21 07:27:37;;;;;;;9.07;4.35;;;-5.00;99.90;;;;;;5070458;28;20579;-75
2021/12/21 07:30:06;;;;;;;9.68;5.35;;;-5.00;99.90;;;;;;5070908;28;20688;-75
2021/12/21 07:32:34;;;;;;;7.25;4.38;;;-5.00;99.90;;;;;;5069567;28;21005;-74
2021/12/21 07:35:00;;;;;;;7.60;4.43;;;-4.90;99.90;;;;;;5070557;28;20200;-74
2021/12/21 07:37:28;;;;;;;8.80;5.05;;;-4.90;99.90;;;;;;5069756;28;20671;-74
2021/12/21 07:39:55;;;;;;;7.45;4.70;;;-4.80;99.90;;;;;;5071197;28;20207;-75
2021/12/21 07:42:23;;;;;;;6.70;4.35;;;-4.80;99.90;;;;;;5085631;28;20200;-74
2021/12/21 07:44:50;;;;;;;9.88;5.18;;;-4.80;99.90;;;;;;5089491;28;20281;-74
2021/12/21 07:47:18;;;;;;;5.38;4.32;;;-4.80;99.90;;;;;;5087987;28;20200;-74
2021/12/21 07:49:45;;;;;;;6.45;4.50;;;-4.80;99.90;;;;;;5079347;28;20757;-74
2021/12/21 07:52:13;;;;;;;7.40;4.85;;;-4.70;99.90;;;;;;5080490;28;20204;-74
2021/12/21 07:54:41;;;;;;;7.65;5.03;;;-4.70;99.90;;;;;;5083068;28;20204;-74
2021/12/21 07:57:08;;;;;;;8.27;3.97;;;-4.60;99.90;;;;;;5071993;28;20207;-74
2021/12/21 07:59:35;;;;;;;7.95;4.75;;;-4.50;99.90;;;;;;5070111;28;20201;-74
2021/12/21 08:02:02;;;;;;;7.28;5.32;;;-4.20;99.90;;;;;;5069532;28;20583;-74
2021/12/21 08:04:30;;;;;;;6.80;4.50;;;-3.50;99.90;;;;;;5069384;28;20220;-74
2021/12/21 08:07:03;;;;;;;10.35;5.10;;;-2.50;99.90;;;;;;5069727;28;20214;-74
2021/12/21 08:09:37;;;;;;;12.98;7.60;;;-1.50;99.90;;;;;;5069643;28;20510;-74
2021/12/21 08:12:14;;;;;;;32.70;13.75;;;-0.60;99.90;;;;;;5069440;28;20558;-74
2021/12/21 08:14:41;;;;;;;32.60;13.55;;;0.40;99.90;;;;;;5067733;28;20787;-74
2021/12/21 08:17:08;;;;;;;26.55;11.93;;;1.20;99.90;;;;;;5069482;28;20211;-74
2021/12/21 08:19:35;;;;;;;27.55;12.23;;;2.00;99.90;;;;;;5069767;28;20204;-75
2021/12/21 08:22:01;;;;;;;13.93;7.45;;;2.40;99.90;;;;;;5069546;28;20575;-75
2021/12/21 08:24:29;;;;;;;11.35;6.82;;;2.70;99.90;;;;;;5068842;28;20235;-75
2021/12/21 08:26:56;;;;;;;11.57;5.75;;;3.00;99.90;;;;;;5121738;22;20231;-92
2021/12/21 08:29:24;;;;;;;7.13;4.88;;;3.30;99.90;;;;;;5112755;28;20184;-92
2021/12/21 08:31:51;;;;;;;7.82;4.90;;;3.50;99.90;;;;;;5110775;28;20210;-92
2021/12/21 08:34:18;;;;;;;7.57;5.30;;;3.80;99.90;;;;;;5107254;28;20215;-90
2021/12/21 08:36:45;;;;;;;5.95;5.00;;;4.00;99.90;;;;;;5108637;28;20215;-92
2021/12/21 08:39:12;;;;;;;7.05;4.95;;;4.20;99.90;;;;;;5109194;28;20577;-93
2021/12/21 08:41:42;;;;;;;9.35;4.30;;;4.30;99.90;;;;;;5108270;28;20218;-92
2021/12/21 08:44:11;;;;;;;6.68;4.22;;;4.40;99.90;;;;;;5105428;28;20208;-92
2021/12/21 08:46:41;;;;;;;5.60;4.43;;;4.40;99.90;;;;;;5104881;28;20322;-94
2021/12/21 08:49:08;;;;;;;6.70;4.55;;;4.20;99.90;;;;;;5124430;22;20693;-74
2021/12/21 08:51:35;;;;;;;6.20;4.60;;;3.70;99.90;;;;;;5098428;28;20596;-73
2021/12/21 08:54:02;;;;;;;6.30;4.63;;;3.00;99.90;;;;;;5107859;28;20333;-74
2021/12/21 08:56:29;;;;;;;6.30;4.72;;;2.20;99.90;;;;;;5111071;28;20244;-74
2021/12/21 08:58:56;;;;;;;6.75;4.63;;;1.50;99.90;;;;;;5111985;28;20597;-74
2021/12/21 09:01:24;;;;;;;7.75;4.72;;;0.80;99.90;;;;;;5110812;28;20504;-74
2021/12/21 09:03:53;;;;;;;7.40;4.95;;;0.30;99.90;;;;;;5108426;28;20241;-73
2021/12/21 09:06:21;;;;;;;6.63;4.85;;;-0.10;99.90;;;;;;5109504;28;20199;-74
2021/12/21 09:08:48;;;;;;;8.27;5.05;;;-0.30;99.90;;;;;;5109473;28;20568;-73
2021/12/21 09:11:16;;;;;;;6.38;4.30;;;-0.60;99.90;;;;;;5109311;28;20623;-73
2021/12/21 09:13:43;;;;;;;6.30;4.97;;;-0.70;99.90;;;;;;5108435;28;20290;-73
2021/12/21 09:16:11;;;;;;;5.97;4.47;;;-0.80;99.90;;;;;;5109499;28;20205;-73
2021/12/21 09:18:41;;;;;;;5.10;4.50;;;-0.80;99.90;;;;;;5113302;28;20290;-73
2021/12/21 09:21:10;;;;;;;8.15;5.15;;;-0.60;99.90;;;;;;5112753;28;20329;-73
2021/12/21 09:23:37;;;;;;;8.70;4.70;;;-0.40;99.90;;;;;;5112451;28;20548;-73
2021/12/21 09:26:04;;;;;;;5.45;3.92;;;-0.20;99.90;;;;;;5114274;28;20230;-72
2021/12/21 09:28:31;;;;;;;6.57;4.63;;;1.00;99.90;;;;;;5112772;28;20203;-73
2021/12/21 09:30:58;;;;;;;4.95;3.95;;;3.30;99.90;;;;;;5113386;28;20238;-73
2021/12/21 09:33:25;;;;;;;4.32;3.55;;;6.30;99.90;;;;;;5113176;28;20215;-73
2021/12/21 09:35:52;;;;;;;8.07;4.22;;;8.60;99.90;;;;;;5113044;28;20210;-73
2021/12/21 09:38:21;;;;;;;7.72;3.53;;;10.30;99.00;;;;;;5113458;28;20293;-73
2021/12/21 09:40:48;;;;;;;6.97;4.03;;;11.40;96.30;;;;;;5113098;28;20739;-73
2021/12/21 09:43:15;;;;;;;4.53;3.53;;;12.10;95.80;;;;;;5112543;28;20313;-74
2021/12/21 09:45:41;;;;;;;6.70;4.55;;;13.10;94.80;;;;;;5112789;28;20206;-74
2021/12/21 09:48:09;;;;;;;5.00;3.42;;;14.00;93.70;;;;;;5113981;27;20203;-74
2021/12/21 09:50:37;;;;;;;5.45;3.50;;;14.80;92.00;;;;;;5121718;27;20210;-74
2021/12/21 09:53:04;;;;;;;4.00;3.47;;;15.10;91.80;;;;;;5123005;27;20287;-73
2021/12/21 09:55:32;;;;;;;4.90;3.55;;;16.10;90.00;;;;;;5121777;27;20687;-74
2021/12/21 09:57:59;;;;;;;3.63;3.10;;;16.60;90.50;;;;;;5115655;27;20203;-74
2021/12/21 10:00:28;;;;;;;6.20;3.70;;;16.30;89.40;;;;;;5112350;28;20509;-74
2021/12/21 10:03:02;;;;;;;5.87;3.70;;;16.20;88.50;;;;;;5113049;28;20511;-74
2021/12/21 10:05:30;;;;;;;4.33;3.87;;;16.50;89.70;;;;;;5118722;27;20457;-74
2021/12/21 10:07:59;;;;;;;4.27;3.87;;;17.00;87.90;;;;;;5112792;28;20923;-74
2021/12/21 10:10:26;;;;;;;4.83;3.37;;;18.10;85.80;;;;;;5112301;28;20485;-74
2021/12/21 10:12:54;;;;;;;4.80;4.00;;;18.40;85.00;;;;;;5112158;28;20472;-75
2021/12/21 10:15:23;;;;;;;6.60;3.80;;;18.50;84.60;;;;;;5112861;28;20459;-75
2021/12/21 10:17:53;;;;;;;3.67;3.37;;;18.50;85.10;;;;;;5112298;28;20468;-74
2021/12/21 10:20:32;;;;;;;4.73;3.77;;;18.70;83.20;;;;;;5111997;28;20455;-74
2021/12/21 10:22:59;;;;;;;6.03;3.97;;;18.00;83.10;;;;;;5111438;28;20991;-74
2021/12/21 10:25:26;;;;;;;7.07;3.67;;;17.80;84.90;;;;;;5111661;28;20461;-74
2021/12/21 10:27:54;;;;;;;5.17;4.23;;;17.40;83.60;;;;;;5111289;28;20456;-74
2021/12/21 10:30:21;;;;;;;3.67;3.37;;;18.00;83.50;;;;;;5111501;28;21002;-74
2021/12/21 10:32:53;;;;;;;4.30;3.13;;;19.30;82.10;;;;;;5111091;28;20480;-74
2021/12/21 10:35:21;;;;;;;4.20;3.53;;;19.30;80.60;;;;;;5111784;28;20456;-74
2021/12/21 10:37:51;;;;;;;3.57;3.27;;;19.50;79.50;;;;;;5111381;28;20457;-74
2021/12/21 10:40:25;;;;;;;4.63;3.67;;;19.40;80.20;;;;;;5111769;28;20453;-74
2021/12/21 10:42:56;;;;;;;4.80;4.10;;;19.20;76.50;;;;;;5104008;28;20728;-75
2021/12/21 10:45:31;;;;;;;8.00;4.10;;;19.00;79.20;;;;;;5111820;28;20468;-74
2021/12/21 10:48:00;;;;;;;4.20;3.80;;;19.00;78.10;;;;;;5111273;28;20469;-74
2021/12/21 10:50:29;;;;;;;4.30;3.90;;;19.40;77.40;;;;;;5110748;28;20480;-74
2021/12/21 10:52:58;;;;;;;4.03;3.43;;;19.20;78.10;;;;;;5111842;28;20841;-74
2021/12/21 10:55:30;;;;;;;4.13;3.67;;;19.20;78.50;;;;;;5110802;28;20460;-74
2021/12/21 10:58:08;;;;;;;5.20;3.80;;;19.50;76.90;;;;;;5111261;28;20465;-74
2021/12/21 11:00:44;;;;;;;4.27;3.43;;;19.30;75.40;;;;;;5109131;28;20979;-74
2021/12/21 11:03:11;;;;;;;5.20;3.40;;;19.10;77.20;;;;;;5108849;28;20492;-74
2021/12/21 11:05:42;;;;;;;3.93;3.53;;;19.10;77.00;;;;;;5110427;28;20566;-74
2021/12/21 11:08:16;;;;;;;5.03;3.80;;;18.70;78.70;;;;;;5111339;28;20862;-74
2021/12/21 11:10:51;;;;;;;5.23;3.63;;;18.70;78.50;;;;;;5110231;28;20488;-74
2021/12/21 11:13:20;;;;;;;4.70;3.73;;;18.20;79.50;;;;;;5111000;28;20487;-74
2021/12/21 11:15:53;;;;;;;4.40;3.83;;;18.40;77.40;;;;;;5111412;28;20465;-74
2021/12/21 11:18:21;;;;;;;4.77;4.13;;;18.40;78.40;;;;;;5110622;28;20579;-73
2021/12/21 11:20:51;;;;;;;6.33;3.90;;;18.40;76.10;;;;;;5111605;28;20528;-72
2021/12/21 11:23:19;;;;;;;6.00;4.10;;;17.70;78.30;;;;;;5111879;28;20473;-73
2021/12/21 11:25:49;;;;;;;3.73;3.37;;;17.80;77.60;;;;;;5112096;28;20461;-72
2021/12/21 11:28:21;;;;;;;13.10;4.57;;;17.70;77.20;;;;;;5111770;28;20695;-73
2021/12/21 11:30:48;;;;;;;4.20;3.73;;;17.40;77.00;;;;;;5111604;28;20849;-73
2021/12/21 11:33:17;;;;;;;4.77;4.20;;;17.10;77.30;;;;;;5110189;28;20481;-73
2021/12/21 11:38:30;;;;;;;4.22;3.58;;;15.60;80.50;;;;;;5110706;28;20440;-73
2021/12/21 11:40:57;;;;;;;4.47;3.67;;;15.10;80.30;;;;;;5108944;28;20446;-74
2021/12/21 11:43:40;;;;;;;4.63;4.10;;;14.70;81.30;;;;;;5110952;28;20219;-73
2021/12/21 11:46:08;;;;;;;5.35;4.07;;;14.20;80.20;;;;;;5110059;28;20974;-73
2021/12/21 11:48:45;;;;;;;4.68;3.95;;;13.80;82.20;;;;;;5110147;28;20221;-74
2021/12/21 11:51:13;;;;;;;4.35;3.95;;;13.40;82.20;;;;;;5110136;28;20269;-73
2021/12/21 11:53:40;;;;;;;6.70;4.18;;;12.90;84.10;;;;;;5109937;28;20219;-73
2021/12/21 11:56:08;;;;;;;4.43;3.72;;;12.80;84.30;;;;;;5110403;28;20199;-73
2021/12/21 11:58:41;;;;;;;6.60;3.63;;;12.60;84.60;;;;;;5110226;28;20199;-73
2021/12/21 12:01:15;;;;;;;3.95;3.50;;;12.40;85.20;;;;;;5110849;28;20191;-74
2021/12/21 12:03:55;;;;;;;3.88;3.53;;;12.30;85.70;;;;;;5110144;28;20214;-73
2021/12/21 12:06:22;;;;;;;4.03;3.50;;;12.20;85.30;;;;;;5110261;28;20206;-73
2021/12/21 12:08:51;;;;;;;5.97;3.55;;;11.90;83.70;;;;;;5110027;28;20207;-73
2021/12/21 12:11:23;;;;;;;4.93;3.47;;;11.70;85.50;;;;;;5109921;28;20250;-73
2021/12/21 12:14:04;;;;;;;10.35;3.90;;;11.70;86.60;;;;;;5110112;28;20225;-72
2021/12/21 12:16:41;;;;;;;3.92;3.53;;;11.70;86.40;;;;;;5110113;28;20194;-72
2021/12/21 12:19:14;;;;;;;5.28;3.67;;;11.40;86.40;;;;;;5110143;28;20603;-74
2021/12/21 12:21:54;;;;;;;4.53;3.75;;;11.20;85.70;;;;;;5103624;28;20210;-72
2021/12/21 12:24:22;;;;;;;4.13;3.63;;;10.80;87.60;;;;;;5109716;28;20233;-72
2021/12/21 12:26:58;;;;;;;5.82;4.75;;;10.40;88.40;;;;;;5109184;28;20207;-72
2021/12/21 12:29:28;;;;;;;4.32;3.45;;;10.00;88.50;;;;;;5107217;28;20194;-71
2021/12/21 12:32:01;;;;;;;4.40;3.60;;;9.60;90.60;;;;;;5108125;28;20657;-71
2021/12/21 12:34:32;;;;;;;7.40;3.90;;;9.30;90.90;;;;;;5109415;28;20222;-72
2021/12/21 12:36:59;;;;;;;5.28;3.60;;;9.10;91.20;;;;;;5107511;28;20800;-74
2021/12/21 12:39:33;;;;;;;6.70;4.35;;;8.90;91.40;;;;;;5110813;28;20478;-74
2021/12/21 12:42:05;;;;;;;7.60;6.10;;;8.60;91.70;;;;;;5109979;28;20199;-73
2021/12/21 12:44:36;;;;;;;7.28;4.60;;;8.40;92.20;;;;;;5109794;28;20222;-73
2021/12/21 12:47:06;;;;;;;5.57;3.97;;;8.30;92.40;;;;;;5109258;28;20207;-74
2021/12/21 12:49:35;;;;;;;4.80;4.05;;;8.20;92.30;;;;;;5109660;28;20212;-74
2021/12/21 12:52:07;;;;;;;7.00;4.00;;;8.00;92.60;;;;;;5112782;28;20227;-74
2021/12/21 12:54:52;;;;;;;4.30;3.90;;;7.70;92.80;;;;;;5113256;28;20226;-73
2021/12/21 12:57:35;;;;;;;5.38;4.00;;;7.60;93.10;;;;;;5114107;28;20214;-74
2021/12/21 13:00:25;;;;;;;4.40;3.53;;;7.60;93.40;;;;;;5112063;28;20202;-74
2021/12/21 13:02:57;;;;;;;6.20;3.80;;;7.40;93.70;;;;;;5108049;28;20222;-74
2021/12/21 13:05:27;;;;;;;4.28;3.70;;;7.20;93.70;;;;;;5113166;28;20198;-74
2021/12/21 13:07:54;;;;;;;3.38;3.08;;;7.10;93.80;;;;;;5113768;28;20218;-73
2021/12/21 13:10:23;;;;;;;4.22;3.70;;;6.90;94.10;;;;;;5113107;28;20203;-73
2021/12/21 13:12:56;;;;;;;6.15;3.88;;;6.80;94.20;;;;;;5111132;28;20705;-72
2021/12/21 13:15:35;;;;;;;5.47;3.53;;;6.70;94.40;;;;;;5111894;28;20226;-72
2021/12/21 13:18:04;;;;;;;4.68;3.50;;;6.60;94.50;;;;;;5110840;28;20211;-72
2021/12/21 13:20:31;;;;;;;4.93;3.80;;;6.50;94.50;;;;;;5108384;28;20206;-72
2021/12/21 13:23:09;;;;;;;4.45;3.53;;;6.50;94.50;;;;;;5106304;28;20306;-73
2021/12/21 13:25:36;;;;;;;6.15;3.60;;;6.80;94.10;;;;;;5112417;28;20195;-73
2021/12/21 13:28:09;;;;;;;5.40;4.20;;;6.90;94.10;;;;;;5111735;28;20553;-73